This is the latest recevied weather packets stored in our database for station/object N1PRS-9. If no packets are shown the sender has not sent any weather packets the latest 10 day(s).
| Time | Temp. | Humidity | Pressure | Rain* | Wind** | Luminosity | Snow |
|---|---|---|---|---|---|---|---|
| 1777773031 | 10° C | 54% | 1011.8 hPa | 0 mm | - | 0 W/m² | - |
| 1777772752 | 10° C | 54% | 1011.7 hPa | 0 mm | - | 0 W/m² | - |
| 1777772432 | 10° C | 53% | 1011.7 hPa | 0 mm | - | 0 W/m² | - |
| 1777771530 | 10.56° C | 54% | 1011.8 hPa | 0 mm | - | 0 W/m² | - |
| 1777769434 | 11.11° C | 73% | 1011.3 hPa | 0 mm | - | 0 W/m² | - |
| 1777768244 | 11.11° C | 75% | 1011.1 hPa | 0 mm | - | 0 W/m² | - |
| 1777767343 | 11.11° C | 79% | 1011 hPa | 0 mm | - | 0 W/m² | - |
| 1777766131 | 11.67° C | 76% | 1010.9 hPa | 0 mm | - | 0 W/m² | - |
| 1777765832 | 11.67° C | 75% | 1010.9 hPa | 0 mm | - | 0 W/m² | - |
| 1777764934 | 12.22° C | 74% | 1010.8 hPa | 0 mm | - | 0 W/m² | - |
| 1777764640 | 12.22° C | 73% | 1010.7 hPa | 0 mm | - | 14 W/m² | - |
| 1777762532 | 12.78° C | 71% | 1010.6 hPa | 0 mm | - | 32 W/m² | - |
| 1777759248 | 15° C | 64% | 1010.2 hPa | 0 mm | - | 330 W/m² | - |
| 1777757444 | 13.33° C | 71% | 1010.3 hPa | 0 mm | - | 248 W/m² | - |
| 1777756832 | 12.78° C | 72% | 1010.3 hPa | 0 mm | - | 239 W/m² | - |
| 1777755643 | 12.22° C | 76% | 1010.3 hPa | 0 mm | - | 199 W/m² | - |
| 1777754745 | 11.67° C | 84% | 1010.6 hPa | 0 mm | - | 619 W/m² | - |
| 1777754434 | 11.67° C | 86% | 1010.6 hPa | 0 mm | - | 431 W/m² | - |
| 1777754132 | 11.11° C | 84% | 1010.6 hPa | 0 mm | - | 200 W/m² | - |
| 1777752048 | 11.11° C | 84% | 1010.9 hPa | 0 mm | - | 204 W/m² | - |
| 1777750531 | 10.56° C | 90% | 1011.3 hPa | 0.51 mm | - | 591 W/m² | - |
| 1777750257 | 10.56° C | 93% | 1011.3 hPa | 0.51 mm | - | 206 W/m² | - |
| 1777749933 | 10° C | 94% | 1011.4 hPa | 0.51 mm | - | 800 W/m² | - |
| 1777748132 | 9.44° C | 93% | 1011.9 hPa | 1.52 mm | - | 47 W/m² | - |
| 1777746934 | 8.89° C | 92% | 1011.9 hPa | 1.02 mm | - | 60 W/m² | - |
* Rain latest hour (hover to see other rain measurements)
** Current wind speed in m/s (hover to see current wind gust speed)